sensor_id;sensor_type;location;lat;lon;timestamp;P1;durP1;ratioP1;P2;durP2;ratioP2
57707;SDS011;43540;51.690;9.562;2023-06-24T10:33:09;6.40;;;4.60;;
57707;SDS011;43540;51.690;9.562;2023-06-24T10:35:40;6.85;;;4.13;;
57707;SDS011;43540;51.690;9.562;2023-06-24T10:38:09;6.40;;;4.70;;
57707;SDS011;43540;51.690;9.562;2023-06-24T10:40:37;9.07;;;5.15;;
57707;SDS011;43540;51.690;9.562;2023-06-24T10:43:28;8.70;;;4.78;;
57707;SDS011;43540;51.690;9.562;2023-06-24T10:45:58;7.18;;;4.88;;
57707;SDS011;43540;51.690;9.562;2023-06-24T10:48:25;7.35;;;4.95;;
57707;SDS011;43540;51.690;9.562;2023-06-24T10:50:52;7.45;;;4.88;;
57707;SDS011;43540;51.690;9.562;2023-06-24T10:53:19;6.22;;;4.88;;
57707;SDS011;43540;51.690;9.562;2023-06-24T10:55:47;8.32;;;4.88;;
57707;SDS011;43540;51.690;9.562;2023-06-24T10:58:14;8.05;;;4.93;;
57707;SDS011;43540;51.690;9.562;2023-06-24T11:00:42;10.35;;;6.40;;
57707;SDS011;43540;51.690;9.562;2023-06-24T11:03:13;9.32;;;5.82;;
57707;SDS011;43540;51.690;9.562;2023-06-24T11:05:42;10.27;;;6.70;;
57707;SDS011;43540;51.690;9.562;2023-06-24T11:08:10;9.75;;;5.68;;
57707;SDS011;43540;51.690;9.562;2023-06-24T11:10:44;7.97;;;5.55;;
57707;SDS011;43540;51.690;9.562;2023-06-24T11:13:14;7.78;;;5.32;;
57707;SDS011;43540;51.690;9.562;2023-06-24T11:15:41;7.95;;;5.82;;
57707;SDS011;43540;51.690;9.562;2023-06-24T11:18:09;8.13;;;6.00;;
57707;SDS011;43540;51.690;9.562;2023-06-24T11:20:39;8.30;;;6.15;;
57707;SDS011;43540;51.690;9.562;2023-06-24T11:23:09;8.15;;;6.07;;
57707;SDS011;43540;51.690;9.562;2023-06-24T11:25:41;7.97;;;5.97;;
57707;SDS011;43540;51.690;9.562;2023-06-24T11:28:13;11.23;;;6.07;;
57707;SDS011;43540;51.690;9.562;2023-06-24T11:30:40;8.50;;;5.80;;
57707;SDS011;43540;51.690;9.562;2023-06-24T11:33:07;6.93;;;5.65;;
57707;SDS011;43540;51.690;9.562;2023-06-24T11:35:33;8.27;;;5.38;;
57707;SDS011;43540;51.690;9.562;2023-06-24T11:38:02;8.43;;;5.85;;
57707;SDS011;43540;51.690;9.562;2023-06-24T11:40:30;8.40;;;5.95;;
57707;SDS011;43540;51.690;9.562;2023-06-24T11:43:00;7.95;;;5.85;;
57707;SDS011;43540;51.690;9.562;2023-06-24T11:45:27;8.60;;;5.78;;
57707;SDS011;43540;51.690;9.562;2023-06-24T11:47:54;8.00;;;5.82;;
57707;SDS011;43540;51.690;9.562;2023-06-24T11:50:31;7.72;;;5.65;;
57707;SDS011;43540;51.690;9.562;2023-06-24T11:52:57;7.38;;;5.82;;
57707;SDS011;43540;51.690;9.562;2023-06-24T11:55:25;7.55;;;5.60;;
57707;SDS011;43540;51.690;9.562;2023-06-24T11:57:59;7.63;;;5.63;;
57707;SDS011;43540;51.690;9.562;2023-06-24T12:00:35;8.38;;;6.22;;
57707;SDS011;43540;51.690;9.562;2023-06-24T12:03:04;8.55;;;5.93;;
57707;SDS011;43540;51.690;9.562;2023-06-24T12:05:36;9.32;;;5.78;;
57707;SDS011;43540;51.690;9.562;2023-06-24T12:08:07;7.55;;;5.60;;
57707;SDS011;43540;51.690;9.562;2023-06-24T12:10:35;7.43;;;5.78;;
57707;SDS011;43540;51.690;9.562;2023-06-24T12:13:04;7.95;;;6.00;;
57707;SDS011;43540;51.690;9.562;2023-06-24T12:15:37;8.52;;;5.90;;
57707;SDS011;43540;51.690;9.562;2023-06-24T12:18:03;7.55;;;5.68;;
57707;SDS011;43540;51.690;9.562;2023-06-24T12:20:31;8.88;;;5.63;;
57707;SDS011;43540;51.690;9.562;2023-06-24T12:23:03;7.90;;;5.85;;
57707;SDS011;43540;51.690;9.562;2023-06-24T12:25:32;8.40;;;5.32;;
57707;SDS011;43540;51.690;9.562;2023-06-24T12:27:59;7.97;;;5.80;;
57707;SDS011;43540;51.690;9.562;2023-06-24T12:30:26;7.47;;;5.60;;
57707;SDS011;43540;51.690;9.562;2023-06-24T12:32:53;7.13;;;5.50;;
57707;SDS011;43540;51.690;9.562;2023-06-24T12:35:19;9.00;;;5.85;;
57707;SDS011;43540;51.690;9.562;2023-06-24T12:37:46;6.93;;;5.38;;
57707;SDS011;43540;51.690;9.562;2023-06-24T12:40:14;7.15;;;5.35;;
57707;SDS011;43540;51.690;9.562;2023-06-24T12:42:40;6.72;;;5.55;;
57707;SDS011;43540;51.690;9.562;2023-06-24T12:45:07;8.30;;;5.40;;
57707;SDS011;43540;51.690;9.562;2023-06-24T12:47:34;9.00;;;5.78;;
57707;SDS011;43540;51.690;9.562;2023-06-24T12:50:00;8.00;;;5.75;;
57707;SDS011;43540;51.690;9.562;2023-06-24T12:52:26;6.88;;;5.22;;
57707;SDS011;43540;51.690;9.562;2023-06-24T12:54:53;7.45;;;5.85;;
57707;SDS011;43540;51.690;9.562;2023-06-24T12:57:19;8.32;;;5.55;;
57707;SDS011;43540;51.690;9.562;2023-06-24T12:59:46;8.18;;;5.80;;
57707;SDS011;43540;51.690;9.562;2023-06-24T13:02:12;7.57;;;5.40;;
57707;SDS011;43540;51.690;9.562;2023-06-24T13:04:39;8.25;;;5.65;;
57707;SDS011;43540;51.690;9.562;2023-06-24T13:07:05;8.88;;;6.10;;
57707;SDS011;43540;51.690;9.562;2023-06-24T13:09:33;8.55;;;5.55;;
57707;SDS011;43540;51.690;9.562;2023-06-24T13:12:00;9.25;;;5.80;;
57707;SDS011;43540;51.690;9.562;2023-06-24T13:14:26;6.68;;;5.60;;
57707;SDS011;43540;51.690;9.562;2023-06-24T13:16:54;8.15;;;5.40;;
57707;SDS011;43540;51.690;9.562;2023-06-24T13:19:21;7.72;;;5.50;;
57707;SDS011;43540;51.690;9.562;2023-06-24T13:21:48;7.95;;;5.78;;
57707;SDS011;43540;51.690;9.562;2023-06-24T13:24:14;8.27;;;5.82;;
57707;SDS011;43540;51.690;9.562;2023-06-24T13:26:40;7.18;;;5.45;;
57707;SDS011;43540;51.690;9.562;2023-06-24T13:29:07;9.27;;;5.90;;
57707;SDS011;43540;51.690;9.562;2023-06-24T13:31:34;7.70;;;5.53;;
57707;SDS011;43540;51.690;9.562;2023-06-24T13:34:01;9.85;;;5.85;;
57707;SDS011;43540;51.690;9.562;2023-06-24T13:36:34;7.05;;;5.30;;
57707;SDS011;43540;51.690;9.562;2023-06-24T13:39:03;7.22;;;5.80;;
57707;SDS011;43540;51.690;9.562;2023-06-24T13:41:31;7.75;;;5.43;;
57707;SDS011;43540;51.690;9.562;2023-06-24T13:44:07;8.95;;;5.45;;
57707;SDS011;43540;51.690;9.562;2023-06-24T13:46:34;8.90;;;5.32;;
57707;SDS011;43540;51.690;9.562;2023-06-24T13:49:00;7.00;;;5.43;;
57707;SDS011;43540;51.690;9.562;2023-06-24T13:51:31;7.28;;;5.68;;
57707;SDS011;43540;51.690;9.562;2023-06-24T13:53:58;6.68;;;5.20;;
57707;SDS011;43540;51.690;9.562;2023-06-24T13:56:25;8.40;;;5.38;;
57707;SDS011;43540;51.690;9.562;2023-06-24T13:58:52;8.38;;;6.03;;
57707;SDS011;43540;51.690;9.562;2023-06-24T14:01:20;9.50;;;6.20;;
57707;SDS011;43540;51.690;9.562;2023-06-24T14:03:47;9.02;;;5.57;;
57707;SDS011;43540;51.690;9.562;2023-06-24T14:06:15;7.57;;;5.38;;
57707;SDS011;43540;51.690;9.562;2023-06-24T14:08:43;8.20;;;5.38;;
57707;SDS011;43540;51.690;9.562;2023-06-24T14:11:10;8.73;;;5.90;;
57707;SDS011;43540;51.690;9.562;2023-06-24T14:13:37;8.23;;;5.65;;
57707;SDS011;43540;51.690;9.562;2023-06-24T14:16:03;9.40;;;6.28;;
57707;SDS011;43540;51.690;9.562;2023-06-24T14:18:30;8.63;;;5.97;;
57707;SDS011;43540;51.690;9.562;2023-06-24T14:20:58;8.23;;;5.65;;
57707;SDS011;43540;51.690;9.562;2023-06-24T14:23:26;7.63;;;5.53;;
57707;SDS011;43540;51.690;9.562;2023-06-24T14:25:53;9.90;;;5.75;;
57707;SDS011;43540;51.690;9.562;2023-06-24T14:28:20;7.57;;;5.55;;
57707;SDS011;43540;51.690;9.562;2023-06-24T14:30:47;7.93;;;5.90;;
57707;SDS011;43540;51.690;9.562;2023-06-24T14:33:14;8.60;;;5.72;;
57707;SDS011;43540;51.690;9.562;2023-06-24T14:35:41;8.88;;;6.25;;
57707;SDS011;43540;51.690;9.562;2023-06-24T14:38:08;7.28;;;5.95;;
57707;SDS011;43540;51.690;9.562;2023-06-24T14:40:34;8.48;;;5.90;;
57707;SDS011;43540;51.690;9.562;2023-06-24T14:43:01;9.57;;;5.78;;
57707;SDS011;43540;51.690;9.562;2023-06-24T14:45:28;8.35;;;5.65;;
57707;SDS011;43540;51.690;9.562;2023-06-24T14:47:54;7.75;;;6.20;;
57707;SDS011;43540;51.690;9.562;2023-06-24T14:50:21;7.97;;;5.55;;
57707;SDS011;43540;51.690;9.562;2023-06-24T14:52:47;8.68;;;5.80;;
57707;SDS011;43540;51.690;9.562;2023-06-24T14:55:13;7.60;;;5.80;;
57707;SDS011;43540;51.690;9.562;2023-06-24T14:57:40;7.57;;;5.70;;
57707;SDS011;43540;51.690;9.562;2023-06-24T15:00:07;8.13;;;5.60;;
57707;SDS011;43540;51.690;9.562;2023-06-24T15:02:34;7.25;;;5.60;;
57707;SDS011;43540;51.690;9.562;2023-06-24T15:05:01;8.75;;;5.88;;
57707;SDS011;43540;51.690;9.562;2023-06-24T15:07:28;6.80;;;5.57;;
57707;SDS011;43540;51.690;9.562;2023-06-24T15:09:55;7.78;;;5.40;;
57707;SDS011;43540;51.690;9.562;2023-06-24T15:12:21;6.93;;;5.55;;
57707;SDS011;43540;51.690;9.562;2023-06-24T15:14:48;7.32;;;5.75;;
57707;SDS011;43540;51.690;9.562;2023-06-24T15:17:15;8.18;;;5.45;;
57707;SDS011;43540;51.690;9.562;2023-06-24T15:19:41;7.20;;;5.70;;
57707;SDS011;43540;51.690;9.562;2023-06-24T15:22:08;7.95;;;5.53;;
57707;SDS011;43540;51.690;9.562;2023-06-24T15:24:34;7.78;;;5.32;;
57707;SDS011;43540;51.690;9.562;2023-06-24T15:27:01;8.77;;;5.15;;
57707;SDS011;43540;51.690;9.562;2023-06-24T15:29:27;7.93;;;5.53;;
57707;SDS011;43540;51.690;9.562;2023-06-24T15:31:53;7.07;;;5.32;;
57707;SDS011;43540;51.690;9.562;2023-06-24T15:34:20;7.05;;;5.38;;
57707;SDS011;43540;51.690;9.562;2023-06-24T15:36:46;6.40;;;5.30;;
57707;SDS011;43540;51.690;9.562;2023-06-24T15:39:13;8.32;;;5.57;;
57707;SDS011;43540;51.690;9.562;2023-06-24T15:41:39;7.03;;;5.30;;
57707;SDS011;43540;51.690;9.562;2023-06-24T15:44:06;6.03;;;5.22;;
57707;SDS011;43540;51.690;9.562;2023-06-24T15:46:32;6.93;;;5.35;;
57707;SDS011;43540;51.690;9.562;2023-06-24T15:48:59;6.47;;;4.63;;
57707;SDS011;43540;51.690;9.562;2023-06-24T15:51:25;7.20;;;4.70;;
57707;SDS011;43540;51.690;9.562;2023-06-24T15:53:52;7.20;;;5.40;;
57707;SDS011;43540;51.690;9.562;2023-06-24T15:56:18;9.05;;;5.65;;
57707;SDS011;43540;51.690;9.562;2023-06-24T15:58:45;6.82;;;5.63;;
57707;SDS011;43540;51.690;9.562;2023-06-24T16:01:13;8.07;;;5.60;;
57707;SDS011;43540;51.690;9.562;2023-06-24T16:03:39;7.70;;;5.32;;
57707;SDS011;43540;51.690;9.562;2023-06-24T16:06:06;7.22;;;5.50;;
57707;SDS011;43540;51.690;9.562;2023-06-24T16:08:33;8.13;;;5.28;;
57707;SDS011;43540;51.690;9.562;2023-06-24T16:10:59;5.80;;;4.80;;
57707;SDS011;43540;51.690;9.562;2023-06-24T16:13:27;6.43;;;5.13;;
57707;SDS011;43540;51.690;9.562;2023-06-24T16:15:53;5.72;;;5.00;;
57707;SDS011;43540;51.690;9.562;2023-06-24T16:18:20;7.53;;;5.20;;
57707;SDS011;43540;51.690;9.562;2023-06-24T16:20:46;8.20;;;5.57;;
57707;SDS011;43540;51.690;9.562;2023-06-24T16:23:12;6.13;;;5.43;;
57707;SDS011;43540;51.690;9.562;2023-06-24T16:25:39;7.57;;;5.32;;
57707;SDS011;43540;51.690;9.562;2023-06-24T16:28:05;10.25;;;5.63;;
57707;SDS011;43540;51.690;9.562;2023-06-24T16:30:32;8.02;;;5.20;;
57707;SDS011;43540;51.690;9.562;2023-06-24T16:32:59;7.40;;;5.30;;
57707;SDS011;43540;51.690;9.562;2023-06-24T16:35:25;7.38;;;5.25;;
57707;SDS011;43540;51.690;9.562;2023-06-24T16:37:52;7.38;;;5.60;;
57707;SDS011;43540;51.690;9.562;2023-06-24T16:40:18;8.35;;;5.72;;
57707;SDS011;43540;51.690;9.562;2023-06-24T16:42:45;8.68;;;5.65;;
57707;SDS011;43540;51.690;9.562;2023-06-24T16:45:11;9.48;;;5.60;;
57707;SDS011;43540;51.690;9.562;2023-06-24T16:47:38;6.95;;;5.43;;
57707;SDS011;43540;51.690;9.562;2023-06-24T16:50:04;8.25;;;5.30;;
57707;SDS011;43540;51.690;9.562;2023-06-24T16:52:31;6.65;;;5.45;;
57707;SDS011;43540;51.690;9.562;2023-06-24T16:54:59;7.55;;;5.95;;
57707;SDS011;43540;51.690;9.562;2023-06-24T16:57:28;6.80;;;5.47;;
57707;SDS011;43540;51.690;9.562;2023-06-24T16:59:55;7.65;;;5.63;;
57707;SDS011;43540;51.690;9.562;2023-06-24T17:02:21;6.75;;;5.38;;
57707;SDS011;43540;51.690;9.562;2023-06-24T17:04:47;7.93;;;5.57;;
57707;SDS011;43540;51.690;9.562;2023-06-24T17:07:14;8.05;;;5.72;;
57707;SDS011;43540;51.690;9.562;2023-06-24T17:09:40;7.75;;;5.32;;
57707;SDS011;43540;51.690;9.562;2023-06-24T17:12:07;10.05;;;5.63;;
57707;SDS011;43540;51.690;9.562;2023-06-24T17:14:34;7.47;;;6.07;;
57707;SDS011;43540;51.690;9.562;2023-06-24T17:17:00;8.10;;;5.45;;
57707;SDS011;43540;51.690;9.562;2023-06-24T17:19:27;6.32;;;5.43;;
57707;SDS011;43540;51.690;9.562;2023-06-24T17:21:53;8.93;;;5.85;;
57707;SDS011;43540;51.690;9.562;2023-06-24T17:24:20;7.53;;;5.88;;
57707;SDS011;43540;51.690;9.562;2023-06-24T17:26:47;7.10;;;5.70;;
57707;SDS011;43540;51.690;9.562;2023-06-24T17:29:13;8.45;;;5.60;;
57707;SDS011;43540;51.690;9.562;2023-06-24T17:31:41;12.95;;;5.80;;
57707;SDS011;43540;51.690;9.562;2023-06-24T17:34:08;8.55;;;5.60;;
57707;SDS011;43540;51.690;9.562;2023-06-24T17:36:34;7.13;;;5.90;;
57707;SDS011;43540;51.690;9.562;2023-06-24T17:39:01;8.35;;;6.70;;
57707;SDS011;43540;51.690;9.562;2023-06-24T17:41:27;8.25;;;6.00;;
57707;SDS011;43540;51.690;9.562;2023-06-24T17:43:54;7.13;;;5.47;;
57707;SDS011;43540;51.690;9.562;2023-06-24T17:46:21;6.65;;;5.72;;
57707;SDS011;43540;51.690;9.562;2023-06-24T17:48:47;6.80;;;5.45;;
57707;SDS011;43540;51.690;9.562;2023-06-24T17:51:14;16.88;;;6.22;;
57707;SDS011;43540;51.690;9.562;2023-06-24T17:53:41;7.75;;;5.90;;
57707;SDS011;43540;51.690;9.562;2023-06-24T17:56:07;6.70;;;5.53;;
57707;SDS011;43540;51.690;9.562;2023-06-24T17:58:34;7.57;;;5.50;;
57707;SDS011;43540;51.690;9.562;2023-06-24T18:01:01;10.77;;;5.93;;
57707;SDS011;43540;51.690;9.562;2023-06-24T18:03:27;7.45;;;5.45;;
57707;SDS011;43540;51.690;9.562;2023-06-24T18:05:54;7.45;;;5.80;;
57707;SDS011;43540;51.690;9.562;2023-06-24T18:08:20;7.47;;;5.93;;
57707;SDS011;43540;51.690;9.562;2023-06-24T18:10:47;7.40;;;5.70;;
57707;SDS011;43540;51.690;9.562;2023-06-24T18:13:14;8.38;;;5.90;;
57707;SDS011;43540;51.690;9.562;2023-06-24T18:15:41;6.32;;;5.43;;
57707;SDS011;43540;51.690;9.562;2023-06-24T18:18:07;8.57;;;5.90;;
57707;SDS011;43540;51.690;9.562;2023-06-24T18:20:34;8.55;;;5.80;;
57707;SDS011;43540;51.690;9.562;2023-06-24T18:23:01;7.78;;;5.68;;
57707;SDS011;43540;51.690;9.562;2023-06-24T18:25:28;6.68;;;5.32;;
57707;SDS011;43540;51.690;9.562;2023-06-24T18:27:54;7.45;;;5.70;;
57707;SDS011;43540;51.690;9.562;2023-06-24T18:30:21;7.07;;;5.55;;
57707;SDS011;43540;51.690;9.562;2023-06-24T18:32:47;6.93;;;5.60;;
57707;SDS011;43540;51.690;9.562;2023-06-24T18:35:14;7.38;;;5.40;;
57707;SDS011;43540;51.690;9.562;2023-06-24T18:37:41;8.57;;;5.75;;
57707;SDS011;43540;51.690;9.562;2023-06-24T18:40:08;7.30;;;5.75;;
57707;SDS011;43540;51.690;9.562;2023-06-24T18:42:36;7.57;;;5.65;;
57707;SDS011;43540;51.690;9.562;2023-06-24T18:45:02;9.65;;;6.50;;
57707;SDS011;43540;51.690;9.562;2023-06-24T18:47:29;8.10;;;6.40;;
57707;SDS011;43540;51.690;9.562;2023-06-24T18:49:56;9.50;;;6.72;;
57707;SDS011;43540;51.690;9.562;2023-06-24T18:52:23;8.35;;;6.68;;
57707;SDS011;43540;51.690;9.562;2023-06-24T18:54:49;8.07;;;6.22;;
57707;SDS011;43540;51.690;9.562;2023-06-24T18:57:16;10.00;;;6.80;;
57707;SDS011;43540;51.690;9.562;2023-06-24T18:59:43;7.32;;;6.13;;
57707;SDS011;43540;51.690;9.562;2023-06-24T19:02:10;9.48;;;6.63;;
57707;SDS011;43540;51.690;9.562;2023-06-24T19:04:37;10.93;;;6.65;;
57707;SDS011;43540;51.690;9.562;2023-06-24T19:07:04;9.85;;;6.63;;
57707;SDS011;43540;51.690;9.562;2023-06-24T19:09:31;8.65;;;6.15;;
57707;SDS011;43540;51.690;9.562;2023-06-24T19:11:57;7.72;;;6.28;;
57707;SDS011;43540;51.690;9.562;2023-06-24T19:14:24;7.78;;;6.15;;
57707;SDS011;43540;51.690;9.562;2023-06-24T19:16:51;9.07;;;6.65;;
57707;SDS011;43540;51.690;9.562;2023-06-24T19:19:18;7.63;;;6.53;;
57707;SDS011;43540;51.690;9.562;2023-06-24T19:21:45;9.40;;;6.60;;
57707;SDS011;43540;51.690;9.562;2023-06-24T19:24:11;7.75;;;6.10;;
57707;SDS011;43540;51.690;9.562;2023-06-24T19:26:38;8.20;;;6.40;;
